Time;durP1;ratioP1;P1;durP2;ratioP2;P2;SDS_P1;SDS_P2;PMS_P1;PMS_P2;Temp;Humidity;BMP_temperature;BMP_pressure;BME280_temperature;BME280_humidity;BME280_pressure;Samples;Min_cycle;Max_cycle;Signal;HPM_P1;HPM_P2
2021/11/01 00:00:00;;;;;;;4.70;0.82;;;31.80;28.40;;;;;;5055098;28;20152;-66
2021/11/01 00:02:27;;;;;;;6.00;1.15;;;31.70;27.80;;;;;;5050736;28;20447;-68
2021/11/01 00:04:53;;;;;;;5.07;1.05;;;31.60;29.30;;;;;;5050906;28;20081;-67
2021/11/01 00:07:20;;;;;;;7.78;1.90;;;31.60;28.70;;;;;;5049639;28;20161;-66
2021/11/01 00:09:46;;;;;;;8.55;1.98;;;31.50;28.80;;;;;;5052326;28;20555;-66
2021/11/01 00:12:13;;;;;;;8.90;2.00;;;31.50;29.80;;;;;;5050295;28;20660;-65
2021/11/01 00:14:40;;;;;;;8.32;1.50;;;31.40;29.00;;;;;;5056624;28;20073;-67
2021/11/01 00:17:06;;;;;;;11.15;1.30;;;31.30;26.40;;;;;;5017262;28;20104;-64
2021/11/01 00:19:32;;;;;;;3.78;1.30;;;31.20;25.30;;;;;;5050380;28;20092;-66
2021/11/01 00:21:59;;;;;;;7.05;1.45;;;31.20;25.70;;;;;;5037123;28;20448;-66
2021/11/01 00:24:25;;;;;;;4.88;1.30;;;31.20;25.80;;;;;;5034471;28;20459;-66
2021/11/01 00:26:52;;;;;;;7.80;1.40;;;31.10;26.20;;;;;;5050956;28;20065;-66
2021/11/01 00:29:18;;;;;;;8.50;1.48;;;31.00;25.50;;;;;;5048317;28;20093;-67
2021/11/01 00:31:45;;;;;;;8.27;1.50;;;30.90;26.10;;;;;;5050674;28;20083;-67
2021/11/01 00:34:11;;;;;;;6.00;1.20;;;30.80;26.20;;;;;;5064865;28;20077;-67
2021/11/01 00:36:37;;;;;;;2.85;1.20;;;30.70;25.50;;;;;;5051776;28;20085;-65
2021/11/01 00:39:04;;;;;;;14.52;1.77;;;30.60;25.80;;;;;;5067876;28;20124;-65
2021/11/01 00:41:30;;;;;;;10.32;1.70;;;30.60;26.60;;;;;;5051796;28;20077;-66
2021/11/01 00:43:59;;;;;;;13.77;1.80;;;30.40;25.10;;;;;;5049415;28;20088;-64
2021/11/01 00:46:26;;;;;;;13.63;1.88;;;30.30;24.90;;;;;;5050429;28;20092;-65
2021/11/01 00:48:53;;;;;;;14.55;2.67;;;30.30;24.90;;;;;;5049844;28;20065;-66
2021/11/01 00:51:20;;;;;;;16.63;3.58;;;30.20;25.20;;;;;;5050618;28;20104;-65
2021/11/01 00:53:49;;;;;;;16.85;3.33;;;30.10;25.10;;;;;;5067773;28;20520;-66
2021/11/01 00:56:17;;;;;;;27.73;4.28;;;30.00;25.60;;;;;;5050026;28;20081;-63
2021/11/01 00:58:44;;;;;;;19.30;3.80;;;29.90;26.00;;;;;;5052796;28;20156;-66
2021/11/01 01:01:13;;;;;;;22.15;4.50;;;29.80;25.90;;;;;;5051813;28;20241;-67
2021/11/01 01:03:42;;;;;;;9.75;4.10;;;29.70;25.60;;;;;;5052795;28;20080;-64
2021/11/01 01:06:08;;;;;;;18.00;4.63;;;29.60;25.90;;;;;;5055179;28;20202;-65
2021/11/01 01:08:35;;;;;;;20.67;4.10;;;29.40;25.80;;;;;;5054532;28;20077;-64
2021/11/01 01:11:02;;;;;;;14.30;3.03;;;29.40;25.30;;;;;;5072097;28;20080;-63
2021/11/01 01:13:34;;;;;;;16.75;3.33;;;29.30;25.20;;;;;;5072026;28;20432;-63
2021/11/01 01:18:36;;;;;;;13.50;3.13;;;29.20;24.90;;;;;;5073211;28;20083;-65
2021/11/01 01:22:11;;;;;;;23.67;3.00;;;29.10;25.00;;;;;;5054496;28;20223;-64
2021/11/01 01:23:50;;;;;;;19.88;2.90;;;29.10;25.20;;;;;;5072127;28;20065;-65
2021/11/01 01:26:17;;;;;;;17.95;3.55;;;29.00;25.20;;;;;;5053210;28;20096;-66
2021/11/01 01:28:44;;;;;;;11.82;2.90;;;29.00;25.30;;;;;;5054075;28;20081;-65
2021/11/01 01:31:11;;;;;;;10.90;3.13;;;28.90;25.60;;;;;;5054416;28;20076;-65
2021/11/01 01:33:38;;;;;;;20.23;2.80;;;28.90;25.50;;;;;;5054796;28;20163;-65
2021/11/01 01:36:06;;;;;;;16.90;3.40;;;28.80;25.70;;;;;;5056801;28;20073;-65
2021/11/01 01:38:35;;;;;;;22.98;3.95;;;28.70;26.00;;;;;;5054188;28;20546;-65
2021/11/01 01:41:19;;;;;;;16.58;4.30;;;28.60;25.90;;;;;;5075299;28;20085;-63
2021/11/01 01:43:52;;;;;;;25.73;4.65;;;28.50;26.40;;;;;;5057874;28;20073;-66
2021/11/01 01:46:21;;;;;;;25.83;5.78;;;28.50;27.00;;;;;;5053676;28;20099;-64
2021/11/01 01:48:47;;;;;;;26.17;12.73;;;28.30;26.90;;;;;;5037781;28;20065;-65
2021/11/01 01:51:16;;;;;;;30.48;11.52;;;28.20;27.60;;;;;;5054414;28;20120;-65
2021/11/01 01:53:43;;;;;;;27.20;10.98;;;28.00;28.10;;;;;;5054419;28;20087;-65
2021/11/01 01:56:09;;;;;;;19.80;8.60;;;27.90;28.40;;;;;;5053603;28;20073;-65
2021/11/01 01:58:41;;;;;;;22.55;7.22;;;27.70;29.60;;;;;;5037831;28;20077;-65
2021/11/01 02:01:15;;;;;;;19.83;6.78;;;27.60;29.50;;;;;;5069663;28;20169;-66
2021/11/01 02:03:49;;;;;;;31.38;6.50;;;27.50;29.90;;;;;;5036127;28;20069;-65
2021/11/01 02:06:25;;;;;;;42.50;8.15;;;27.40;29.90;;;;;;5021033;28;20068;-66
2021/11/01 02:08:54;;;;;;;28.40;7.80;;;27.40;28.20;;;;;;5053581;28;20076;-63
2021/11/01 02:11:31;;;;;;;24.45;7.30;;;27.30;28.30;;;;;;5053499;28;20330;-64
2021/11/01 02:13:59;;;;;;;49.03;7.90;;;27.30;27.80;;;;;;5053740;28;20065;-64
2021/11/01 02:16:30;;;;;;;37.60;7.88;;;27.30;28.00;;;;;;5052932;28;20077;-63
2021/11/01 02:18:59;;;;;;;52.90;9.00;;;27.20;28.40;;;;;;5068075;28;20115;-64
2021/11/01 02:21:37;;;;;;;60.38;9.88;;;27.20;27.90;;;;;;5052629;28;20160;-64
2021/11/01 02:24:07;;;;;;;44.20;10.02;;;27.20;28.10;;;;;;5053357;28;20451;-64
2021/11/01 02:26:36;;;;;;;44.65;9.82;;;27.10;28.10;;;;;;5052501;28;20069;-64
2021/11/01 02:29:04;;;;;;;51.33;10.25;;;27.10;28.20;;;;;;5051574;28;20081;-63
2021/11/01 02:31:32;;;;;;;63.80;10.70;;;27.10;28.30;;;;;;5038660;28;20081;-63
2021/11/01 02:34:01;;;;;;;68.72;10.43;;;27.00;28.20;;;;;;5050473;28;20166;-63
2021/11/01 02:36:28;;;;;;;75.55;10.52;;;27.00;28.50;;;;;;5051558;28;20073;-63
2021/11/01 02:38:59;;;;;;;51.10;9.93;;;26.90;28.30;;;;;;5053577;28;20143;-63
2021/11/01 02:41:33;;;;;;;50.20;8.75;;;26.90;28.50;;;;;;5051955;28;20214;-64
2021/11/01 02:44:06;;;;;;;69.75;8.18;;;26.90;28.20;;;;;;5051864;28;20104;-63
2021/11/01 02:46:33;;;;;;;59.67;8.40;;;26.90;28.50;;;;;;5055377;28;20184;-62
2021/11/01 02:49:00;;;;;;;45.63;6.65;;;26.80;28.50;;;;;;5069423;28;20069;-64
2021/11/01 02:51:29;;;;;;;46.47;5.97;;;26.80;28.40;;;;;;5051456;28;20489;-63
2021/11/01 02:53:58;;;;;;;36.83;6.43;;;26.80;28.60;;;;;;5071762;28;20069;-63
2021/11/01 02:56:25;;;;;;;35.17;6.72;;;26.80;28.80;;;;;;5051648;28;20642;-63
2021/11/01 02:58:54;;;;;;;43.85;6.18;;;26.80;28.60;;;;;;5052499;28;20144;-64
2021/11/01 03:01:21;;;;;;;32.80;4.65;;;26.70;28.60;;;;;;5082748;28;20108;-62
2021/11/01 03:03:48;;;;;;;27.33;4.25;;;26.80;28.60;;;;;;5052893;28;20126;-65
2021/11/01 03:06:24;;;;;;;38.90;4.88;;;26.80;28.30;;;;;;5054656;28;20486;-63
2021/11/01 03:08:53;;;;;;;40.45;5.30;;;26.80;28.60;;;;;;5069357;28;20089;-64
2021/11/01 03:11:21;;;;;;;35.47;5.70;;;26.90;28.70;;;;;;5070071;28;20163;-64
2021/11/01 03:13:49;;;;;;;35.03;6.53;;;26.80;28.50;;;;;;5051085;28;20152;-63
2021/11/01 03:16:17;;;;;;;34.08;6.57;;;26.80;29.10;;;;;;5051001;28;20081;-63
2021/11/01 03:19:00;;;;;;;36.53;6.35;;;26.80;28.60;;;;;;5051823;28;20107;-64
2021/11/01 03:21:29;;;;;;;23.55;5.68;;;26.70;28.80;;;;;;5044895;28;20104;-62
2021/11/01 03:23:56;;;;;;;43.08;6.07;;;26.70;28.70;;;;;;5050339;28;20096;-65
2021/11/01 03:26:24;;;;;;;34.90;5.30;;;26.70;29.20;;;;;;5051629;28;20788;-63
2021/11/01 03:28:54;;;;;;;30.65;4.45;;;26.60;29.30;;;;;;5034829;28;20080;-64
2021/11/01 03:31:23;;;;;;;39.75;5.75;;;26.60;29.60;;;;;;5067010;28;20085;-64
2021/11/01 03:33:51;;;;;;;28.48;5.35;;;26.50;29.50;;;;;;5050695;28;20080;-64
2021/11/01 03:36:18;;;;;;;39.45;5.22;;;26.40;29.90;;;;;;5068851;28;20172;-64
2021/11/01 03:38:46;;;;;;;38.92;6.22;;;26.30;30.20;;;;;;5068788;28;20116;-63
2021/11/01 03:41:13;;;;;;;36.03;6.15;;;26.10;31.40;;;;;;5051633;28;20100;-62
2021/11/01 03:43:54;;;;;;;38.90;7.30;;;26.10;30.90;;;;;;5051128;28;20574;-64
2021/11/01 03:46:45;;;;;;;58.53;7.82;;;26.00;30.80;;;;;;5048717;28;20093;-65
2021/11/01 03:49:09;;;;;;;51.17;8.50;;;25.90;31.10;;;;;;5067826;28;20172;-65
2021/11/01 03:54:22;;;;;;;51.20;13.13;;;25.60;31.90;;;;;;5075573;28;21604;-64
2021/11/01 03:56:51;;;;;;;57.30;10.40;;;25.50;31.90;;;;;;5050245;28;20084;-65
2021/11/01 03:59:17;;;;;;;47.42;9.88;;;25.50;32.10;;;;;;5050949;28;20207;-64
2021/11/01 04:01:45;;;;;;;52.17;8.65;;;25.40;33.00;;;;;;5054767;28;20142;-64
2021/11/01 04:04:12;;;;;;;46.40;8.38;;;25.30;32.20;;;;;;5034354;28;20089;-63
2021/11/01 04:06:41;;;;;;;36.10;8.73;;;25.30;31.90;;;;;;5050200;28;20070;-63
2021/11/01 04:09:12;;;;;;;37.47;7.38;;;25.30;32.80;;;;;;5050854;28;20073;-64
2021/11/01 04:11:43;;;;;;;45.00;7.60;;;25.30;32.30;;;;;;5068627;28;20176;-64
2021/11/01 04:14:18;;;;;;;40.85;11.88;;;25.20;31.80;;;;;;5050935;28;20115;-64
2021/11/01 04:16:47;;;;;;;34.70;8.70;;;25.20;31.80;;;;;;5049742;28;20079;-64
2021/11/01 04:21:42;;;;;;;48.33;9.25;;;25.10;32.50;;;;;;5068776;28;20424;-64
2021/11/01 04:24:10;;;;;;;36.85;10.80;;;25.10;32.60;;;;;;5050020;28;20084;-64
2021/11/01 04:26:37;;;;;;;39.08;10.48;;;25.00;32.80;;;;;;5050122;28;20231;-65
2021/11/01 04:29:07;;;;;;;35.88;10.32;;;25.00;33.30;;;;;;5051314;28;20106;-63
2021/11/01 04:31:40;;;;;;;39.95;10.73;;;24.90;33.80;;;;;;5072853;28;20088;-65
2021/11/01 04:37:02;;;;;;;37.78;7.50;;;24.80;33.90;;;;;;5011168;28;20091;-62
2021/11/01 04:55:43;;;;;;;26.27;9.43;;;24.40;36.00;;;;;;4965380;28;20083;-64
2021/11/01 04:58:10;;;;;;;32.97;8.93;;;24.40;35.90;;;;;;4947446;28;20087;-64
2021/11/01 05:00:38;;;;;;;34.35;9.48;;;24.30;36.20;;;;;;4949836;28;20123;-63
2021/11/01 05:03:27;;;;;;;31.20;8.35;;;24.30;35.60;;;;;;4965573;28;20079;-63
2021/11/01 05:05:54;;;;;;;31.48;8.30;;;24.30;35.60;;;;;;4966142;28;21138;-63
2021/11/01 05:08:25;;;;;;;39.20;8.15;;;24.30;34.50;;;;;;4964270;28;20436;-63
2021/11/01 05:10:57;;;;;;;36.88;8.65;;;24.30;35.40;;;;;;4965742;28;20094;-62
2021/11/01 05:13:28;;;;;;;33.70;8.02;;;24.30;35.10;;;;;;4965586;28;20083;-63
2021/11/01 05:19:02;;;;;;;31.80;7.18;;;24.40;35.70;;;;;;4996761;28;20085;-62
2021/11/01 05:21:54;;;;;;;40.97;7.43;;;24.30;35.80;;;;;;5001707;28;20177;-63
2021/11/01 05:29:41;;;;;;;39.47;7.38;;;24.30;35.20;;;;;;5071165;28;20134;-64
2021/11/01 05:32:14;;;;;;;50.38;7.35;;;24.20;34.80;;;;;;5053395;28;20459;-63
2021/11/01 05:34:41;;;;;;;35.10;6.13;;;24.20;35.50;;;;;;5053155;28;20096;-64
2021/11/01 05:37:08;;;;;;;31.52;7.00;;;24.20;35.60;;;;;;5036810;28;20108;-65
2021/11/01 05:39:35;;;;;;;29.20;6.32;;;24.10;35.90;;;;;;5052440;28;20095;-65
2021/11/01 05:42:02;;;;;;;31.35;6.45;;;24.10;36.20;;;;;;5071378;28;20077;-64
2021/11/01 05:44:28;;;;;;;26.50;6.15;;;24.00;36.40;;;;;;5052983;28;20092;-63
2021/11/01 05:46:54;;;;;;;29.27;6.15;;;24.00;36.80;;;;;;5053905;28;20164;-64
2021/11/01 05:49:23;;;;;;;27.05;6.53;;;23.90;37.00;;;;;;5053213;28;20127;-63
2021/11/01 05:51:52;;;;;;;32.00;7.03;;;23.90;37.00;;;;;;5053209;28;20103;-63
2021/11/01 05:54:21;;;;;;;27.65;7.50;;;23.90;37.70;;;;;;5070909;28;20068;-62
2021/11/01 05:57:07;;;;;;;32.22;7.68;;;23.80;37.60;;;;;;5072965;28;20066;-64
2021/11/01 06:08:21;;;;;;;37.38;8.60;;;23.70;37.80;;;;;;5070279;28;20479;-64
2021/11/01 06:10:24;;;;;;;48.85;9.80;;;23.60;38.30;;;;;;5065444;28;20081;-63
2021/11/01 06:15:35;;;;;;;49.22;13.27;;;23.50;37.80;;;;;;5069495;28;20079;-64
2021/11/01 06:18:02;;;;;;;41.05;11.15;;;23.50;37.60;;;;;;5053260;28;20084;-65
2021/11/01 06:20:28;;;;;;;28.95;9.80;;;23.50;38.80;;;;;;5051578;28;20085;-64
2021/11/01 06:22:55;;;;;;;37.20;9.25;;;23.50;38.00;;;;;;5035916;28;20073;-65
2021/11/01 06:25:21;;;;;;;40.33;9.85;;;23.40;38.70;;;;;;5055115;28;20080;-65
2021/11/01 06:27:48;;;;;;;37.25;8.05;;;23.30;38.70;;;;;;5054075;28;20077;-64
2021/11/01 06:30:34;;;;;;;42.70;10.43;;;23.30;38.70;;;;;;5070148;28;20073;-64
2021/11/01 06:44:25;;;;;;;36.22;9.00;;;23.00;38.70;;;;;;5069202;28;20185;-65
2021/11/01 06:49:54;;;;;;;40.80;11.05;;;23.10;40.00;;;;;;5008020;28;20085;-65
2021/11/01 07:16:48;;;;;;;53.67;13.93;;;23.00;40.50;;;;;;5052523;28;20115;-63
2021/11/01 07:19:36;;;;;;;50.13;13.90;;;22.90;40.60;;;;;;5050826;28;20103;-66
2021/11/01 07:24:58;;;;;;;48.42;15.15;;;22.90;41.20;;;;;;5068377;28;20069;-64
2021/11/01 09:04:39;;;;;;;38.13;7.80;;;21.50;79.30;;;;;;5052922;28;20111;-64
2021/11/01 09:26:38;;;;;;;30.63;7.22;;;21.30;96.30;;;;;;5053501;28;20073;-64
2021/11/01 09:42:13;;;;;;;29.10;6.95;;;21.30;99.90;;;;;;5070599;28;20124;-63
2021/11/01 09:44:40;;;;;;;22.60;6.45;;;21.30;99.90;;;;;;5054250;28;20100;-64
2021/11/01 09:47:07;;;;;;;24.58;6.80;;;21.20;99.90;;;;;;5037435;28;20083;-63
2021/11/01 09:49:34;;;;;;;28.77;7.90;;;21.20;99.90;;;;;;5068858;28;20129;-63
2021/11/01 09:52:06;;;;;;;35.97;8.00;;;21.20;99.90;;;;;;5036530;28;21336;-63
2021/11/01 09:54:36;;;;;;;38.53;7.72;;;21.20;99.90;;;;;;5052840;28;20097;-64
2021/11/01 09:57:18;;;;;;;30.95;7.45;;;21.20;99.90;;;;;;5052051;28;20085;-64
2021/11/01 09:59:46;;;;;;;25.13;7.05;;;21.20;99.90;;;;;;5070517;28;20109;-65
2021/11/01 10:02:15;;;;;;;25.38;7.70;;;21.10;99.90;;;;;;5038434;28;20440;-63
2021/11/01 10:04:45;;;;;;;26.63;7.32;;;21.10;99.90;;;;;;5073090;28;20560;-64
2021/11/01 10:07:19;;;;;;;33.08;8.95;;;21.10;99.90;;;;;;5070295;28;20182;-63
2021/11/01 10:09:48;;;;;;;27.98;8.10;;;21.00;99.90;;;;;;5069047;28;20585;-64
2021/11/01 10:12:30;;;;;;;26.98;7.68;;;20.90;99.90;;;;;;5034311;28;20124;-64
2021/11/01 10:18:04;;;;;;;29.08;7.53;;;20.80;99.90;;;;;;5069616;28;20088;-64
2021/11/01 10:20:33;;;;;;;33.45;7.63;;;20.70;99.90;;;;;;5035158;28;20096;-64
2021/11/01 10:23:00;;;;;;;34.30;8.05;;;20.50;99.90;;;;;;5069647;28;20095;-64
2021/11/01 10:25:27;;;;;;;28.15;7.57;;;20.50;99.90;;;;;;5051787;28;20123;-64
2021/11/01 10:27:59;;;;;;;30.75;7.47;;;20.50;99.90;;;;;;5050701;28;20593;-64
2021/11/01 10:30:28;;;;;;;29.45;7.72;;;20.50;99.90;;;;;;5068461;28;20080;-64
2021/11/01 10:32:56;;;;;;;32.20;7.35;;;20.50;99.90;;;;;;5051342;28;20106;-64
2021/11/01 10:35:29;;;;;;;33.55;8.40;;;20.50;99.90;;;;;;5067843;28;20074;-64
2021/11/01 10:38:22;;;;;;;34.35;9.38;;;20.50;99.90;;;;;;5052287;28;20081;-64
2021/11/01 10:43:39;;;;;;;29.27;8.65;;;20.40;99.90;;;;;;5069008;28;20071;-65
2021/11/01 11:11:26;;;;;;;40.67;12.88;;;20.20;99.90;;;;;;5069551;28;20080;-63
2021/11/01 11:13:59;;;;;;;44.55;13.85;;;20.10;99.90;;;;;;5039088;28;20097;-65
2021/11/01 11:19:43;;;;;;;41.97;14.75;;;20.10;99.90;;;;;;5051057;28;20088;-63
2021/11/01 11:27:38;;;;;;;52.88;18.73;;;19.90;99.90;;;;;;5036570;28;20167;-63
2021/11/01 11:50:32;;;;;;;35.25;18.73;;;19.90;99.90;;;;;;5007053;28;20134;-63
2021/11/01 11:53:18;;;;;;;42.53;18.17;;;19.90;99.90;;;;;;5005227;28;20222;-63
2021/11/01 11:55:59;;;;;;;43.83;17.20;;;19.80;99.90;;;;;;5006021;28;20137;-64
2021/11/01 11:58:34;;;;;;;35.45;16.10;;;19.90;99.90;;;;;;4983857;28;20132;-63
2021/11/01 12:01:00;;;;;;;49.40;16.83;;;19.80;99.90;;;;;;5006735;28;20115;-64
2021/11/01 12:03:39;;;;;;;46.60;17.48;;;19.80;99.90;;;;;;5008513;28;20137;-64
2021/11/01 12:06:13;;;;;;;45.28;17.80;;;19.80;99.90;;;;;;4997785;28;20070;-63
2021/11/01 12:08:44;;;;;;;38.58;16.45;;;19.80;99.90;;;;;;4999681;28;20077;-63
2021/11/01 12:19:19;;;;;;;44.30;17.45;;;19.70;99.90;;;;;;5032515;28;20595;-64
2021/11/01 12:21:48;;;;;;;49.63;17.53;;;19.70;99.90;;;;;;5030850;28;20088;-65
2021/11/01 12:24:21;;;;;;;39.65;18.15;;;19.70;99.90;;;;;;5012704;28;20121;-64
2021/11/01 12:26:49;;;;;;;36.33;14.32;;;19.70;99.90;;;;;;5035338;28;20590;-64
2021/11/01 12:29:16;;;;;;;37.28;15.25;;;19.60;99.90;;;;;;5028355;28;20078;-65
2021/11/01 12:31:43;;;;;;;49.00;15.13;;;19.60;99.90;;;;;;5029883;28;20090;-65
2021/11/01 12:34:21;;;;;;;34.00;12.57;;;19.60;99.90;;;;;;5028604;28;20102;-64
2021/11/01 12:37:01;;;;;;;30.77;12.13;;;19.50;99.90;;;;;;5027748;28;20097;-65
2021/11/01 12:39:40;;;;;;;35.10;11.10;;;19.50;99.90;;;;;;5028770;28;20084;-65
2021/11/01 12:45:49;;;;;;;35.85;11.40;;;19.50;99.90;;;;;;5029738;28;20116;-64
2021/11/01 12:48:40;;;;;;;32.03;10.30;;;19.50;99.90;;;;;;5032419;28;20078;-64
2021/11/01 12:57:14;;;;;;;43.85;11.98;;;19.50;99.90;;;;;;5038466;28;20125;-64
2021/11/01 12:59:43;;;;;;;33.83;12.00;;;19.60;99.90;;;;;;5033058;28;20117;-64
2021/11/01 13:02:29;;;;;;;39.38;11.55;;;19.60;99.90;;;;;;5037921;28;20501;-64
2021/11/01 13:05:00;;;;;;;39.03;12.20;;;19.50;99.90;;;;;;5042743;28;20093;-65
2021/11/01 13:07:50;;;;;;;43.05;13.18;;;19.60;99.90;;;;;;5040813;28;20077;-64
2021/11/01 13:10:37;;;;;;;43.78;16.50;;;19.60;99.90;;;;;;5028975;28;20176;-67
2021/11/01 13:19:17;;;;;;;41.95;20.58;;;19.50;99.90;;;;;;5040737;28;20177;-64
2021/11/01 13:21:53;;;;;;;43.05;22.35;;;19.50;99.90;;;;;;5040958;28;20520;-64
2021/11/01 13:24:35;;;;;;;51.90;24.33;;;19.50;99.90;;;;;;5039086;28;20081;-65
2021/11/01 13:38:08;;;;;;;46.88;18.60;;;19.50;99.90;;;;;;5043246;28;20587;-64
2021/11/01 13:40:39;;;;;;;46.75;18.13;;;19.40;99.90;;;;;;5041045;28;20073;-64
2021/11/01 13:43:05;;;;;;;42.85;17.83;;;19.40;99.90;;;;;;5039951;28;20081;-63
2021/11/01 13:45:32;;;;;;;47.22;18.23;;;19.50;99.90;;;;;;5039596;28;20076;-63
2021/11/01 13:48:01;;;;;;;41.80;16.83;;;19.40;99.90;;;;;;5044874;28;20066;-65
2021/11/01 13:50:38;;;;;;;48.10;16.17;;;19.40;99.90;;;;;;5040561;28;20599;-63
2021/11/01 13:53:18;;;;;;;47.78;16.95;;;19.40;99.90;;;;;;5022637;28;20135;-63
2021/11/01 13:55:47;;;;;;;45.67;15.52;;;19.40;99.90;;;;;;5037085;28;20072;-63
2021/11/01 13:58:33;;;;;;;48.20;14.60;;;19.40;99.90;;;;;;5023478;28;20074;-63
2021/11/01 14:01:34;;;;;;;40.00;13.30;;;19.40;99.90;;;;;;5036880;28;20476;-63
2021/11/01 14:15:07;;;;;;;36.80;11.10;;;19.40;99.90;;;;;;5041812;28;20199;-64
2021/11/01 14:20:52;;;;;;;43.45;11.13;;;19.40;99.90;;;;;;5027587;28;20082;-64
2021/11/01 14:57:21;;;;;;;31.20;14.23;;;19.60;99.90;;;;;;5014101;28;20733;-64
2021/11/01 15:21:14;;;;;;;24.70;14.98;;;19.90;99.90;;;;;;5007130;28;20589;-65
2021/11/01 15:29:10;;;;;;;28.98;13.55;;;20.00;99.90;;;;;;5006142;28;20509;-63
2021/11/01 15:34:45;;;;;;;32.33;15.57;;;20.20;99.90;;;;;;5006157;28;20528;-64
2021/11/01 16:18:15;;;;;;;;;;;25.00;99.90;;;;;;5008403;28;20203;-63
2021/11/01 16:20:43;;;;;;;27.60;11.13;;;;;;;;;;5005675;28;19917;-63
2021/11/01 16:25:45;;;;;;;44.28;12.65;;;26.60;99.90;;;;;;5005240;28;20183;-64
2021/11/01 16:28:14;;;;;;;50.20;13.75;;;;;;;;;;5009207;28;20042;-63
2021/11/01 16:30:49;;;;;;;41.85;13.48;;;27.10;99.90;;;;;;5009426;28;20814;-64
2021/11/01 16:33:15;;;;;;;49.65;13.35;;;27.20;99.90;;;;;;5012163;28;20118;-64
2021/11/01 16:35:49;;;;;;;27.85;11.82;;;27.50;99.90;;;;;;4992511;28;20089;-65
2021/11/01 16:38:24;;;;;;;28.70;13.32;;;27.80;99.90;;;;;;5010342;28;20101;-65
2021/11/01 16:40:54;;;;;;;32.85;12.38;;;27.50;99.90;;;;;;5010436;28;20104;-65
2021/11/01 16:43:25;;;;;;;42.72;13.38;;;27.10;99.90;;;;;;5010256;28;20097;-66
2021/11/01 16:45:54;;;;;;;37.05;12.55;;;26.80;99.90;;;;;;5008784;28;20067;-65
2021/11/01 16:48:22;;;;;;;22.15;13.02;;;26.30;99.90;;;;;;5009749;28;20098;-66
2021/11/01 16:50:56;;;;;;;31.63;12.73;;;26.00;99.90;;;;;;5008198;28;20094;-65
2021/11/01 16:53:23;;;;;;;21.30;10.95;;;26.60;99.90;;;;;;5010274;28;20073;-65
2021/11/01 16:55:56;;;;;;;20.17;11.52;;;26.40;99.90;;;;;;4992504;28;20077;-64
2021/11/01 16:58:38;;;;;;;22.23;13.05;;;27.80;99.90;;;;;;4993117;28;20081;-65
2021/11/01 17:01:10;;;;;;;24.83;13.18;;;27.80;99.90;;;;;;5009368;28;20477;-65
2021/11/01 17:03:45;;;;;;;36.20;16.05;;;28.50;99.90;;;;;;4993009;28;20102;-64
2021/11/01 17:06:27;;;;;;;31.55;16.20;;;28.60;99.90;;;;;;4992686;28;20932;-65
2021/11/01 17:22:50;;;;;;;25.92;13.52;;;28.10;99.90;;;;;;5010503;28;20213;-64
2021/11/01 17:25:22;;;;;;;23.55;14.02;;;28.20;99.90;;;;;;5010474;28;20509;-66
2021/11/01 17:30:51;;;;;;;32.97;20.67;;;27.90;99.90;;;;;;5010505;28;20112;-65
2021/11/01 17:36:21;;;;;;;31.27;17.27;;;28.50;99.90;;;;;;5009994;28;20081;-66
2021/11/01 18:40:40;;;;;;;12.27;2.58;;;36.60;39.60;;;;;;5008095;28;20102;-67
2021/11/01 18:51:30;;;;;;;;;;;34.60;37.50;;;;;;5008231;28;20107;-65
2021/11/01 18:54:18;;;;;;;4.80;1.27;;;34.80;36.90;;;;;;5008021;28;19997;-67
2021/11/01 18:56:46;;;;;;;5.97;1.23;;;34.90;36.90;;;;;;5009070;28;20070;-65
2021/11/01 18:59:13;;;;;;;4.68;1.10;;;34.60;36.50;;;;;;5007061;28;20147;-66
2021/11/01 19:01:43;;;;;;;72.05;8.00;;;33.70;68.10;;;;;;5005983;28;20097;-65
2021/11/01 19:04:20;;;;;;;11.43;2.10;;;33.70;37.30;;;;;;5008593;28;20124;-69
2021/11/01 19:06:56;;;;;;;9.52;2.30;;;33.70;54.80;;;;;;4990549;28;20080;-70
2021/11/01 19:09:41;;;;;;;11.75;1.55;;;33.10;44.00;;;;;;5006746;28;20599;-67
2021/11/01 20:15:31;;;;;;;8.77;2.40;;;31.80;48.80;;;;;;5005820;28;20022;-67
2021/11/01 21:26:15;;;;;;;14.40;3.10;;;32.00;41.20;;;;;;5008941;28;20221;-64
2021/11/01 21:28:41;;;;;;;7.65;2.97;;;32.00;40.10;;;;;;4990601;28;20086;-64
2021/11/01 21:31:07;;;;;;;15.57;2.95;;;32.10;39.80;;;;;;5008605;28;20075;-63
2021/11/01 21:33:35;;;;;;;20.25;2.80;;;32.10;38.90;;;;;;4991356;28;20185;-65
2021/11/01 21:36:07;;;;;;;12.07;2.70;;;31.90;39.30;;;;;;4990176;28;20114;-64
2021/11/01 21:38:34;;;;;;;8.75;2.53;;;31.70;40.50;;;;;;5008600;28;20070;-64
2021/11/01 21:41:00;;;;;;;11.48;3.15;;;31.70;40.20;;;;;;4989683;28;20090;-65
2021/11/01 21:43:27;;;;;;;17.13;2.72;;;31.90;41.00;;;;;;4989912;28;20109;-64
2021/11/01 21:45:54;;;;;;;14.93;2.40;;;31.90;39.40;;;;;;4989448;28;20511;-66
2021/11/01 21:48:20;;;;;;;20.92;3.10;;;32.00;39.70;;;;;;4990244;28;20078;-65
2021/11/01 21:50:49;;;;;;;22.58;2.60;;;32.10;39.00;;;;;;5008089;28;20094;-64
2021/11/01 21:53:20;;;;;;;12.63;2.15;;;32.10;38.30;;;;;;5019140;28;20109;-63
2021/11/01 21:55:48;;;;;;;12.15;2.55;;;32.10;37.70;;;;;;5009761;28;20484;-64
2021/11/01 22:22:38;;;;;;;13.73;2.10;;;31.50;34.10;;;;;;5009216;28;20097;-66
2021/11/01 22:25:14;;;;;;;22.38;2.90;;;31.70;36.10;;;;;;4994980;28;20066;-65
2021/11/01 22:46:43;;;;;;;9.57;2.40;;;31.70;35.00;;;;;;5025818;28;20976;-66
2021/11/01 22:57:08;;;;;;;11.40;2.22;;;31.60;33.50;;;;;;5026040;28;20151;-64
2021/11/01 22:59:35;;;;;;;9.40;2.70;;;31.60;34.30;;;;;;5008696;28;20099;-64
2021/11/01 23:02:02;;;;;;;17.50;4.90;;;31.50;34.10;;;;;;4992467;28;20090;-66
2021/11/01 23:04:40;;;;;;;23.65;2.30;;;31.50;34.40;;;;;;5010253;28;20100;-65
2021/11/01 23:31:42;;;;;;;9.82;1.85;;;30.50;35.60;;;;;;5026153;28;20126;-64
2021/11/01 23:34:14;;;;;;;10.77;1.88;;;30.40;35.80;;;;;;5026984;28;20195;-64
2021/11/01 23:36:42;;;;;;;13.23;1.67;;;30.30;36.50;;;;;;4992078;28;20069;-64
2021/11/01 23:39:11;;;;;;;13.13;1.92;;;30.20;35.80;;;;;;4990989;28;20165;-64
2021/11/01 23:41:39;;;;;;;17.38;2.67;;;30.00;35.90;;;;;;5008117;28;20037;-64
2021/11/01 23:44:07;;;;;;;8.00;1.67;;;29.90;35.90;;;;;;5026703;28;20025;-63
2021/11/01 23:46:34;;;;;;;23.85;2.63;;;29.90;36.40;;;;;;5041006;28;20074;-63
2021/11/01 23:49:00;;;;;;;93.20;8.02;;;29.80;36.20;;;;;;5008373;28;20074;-63
2021/11/01 23:51:30;;;;;;;77.85;6.72;;;29.70;57.10;;;;;;5007980;28;20193;-63
2021/11/01 23:54:11;;;;;;;29.25;3.50;;;29.60;37.10;;;;;;5008654;28;20322;-63
2021/11/01 23:56:38;;;;;;;15.85;2.65;;;29.50;37.00;;;;;;5002177;28;20077;-62
2021/11/01 23:59:05;;;;;;;14.55;1.70;;;29.40;37.10;;;;;;5008334;28;20602;-65
